sensor_id;sensor_type;location;lat;lon;timestamp;pressure;altitude;pressure_sealevel;temperature;humidity
6196;BME280;3131;42.630;23.382;2023-08-21T00:02:19;94792.05;;;21.98;100.00
6196;BME280;3131;42.630;23.382;2023-08-21T00:04:48;94786.77;;;21.92;100.00
6196;BME280;3131;42.630;23.382;2023-08-21T00:07:17;94792.21;;;21.85;100.00
6196;BME280;3131;42.630;23.382;2023-08-21T00:09:46;94788.55;;;21.79;100.00
6196;BME280;3131;42.630;23.382;2023-08-21T00:12:16;94785.82;;;21.76;100.00
6196;BME280;3131;42.630;23.382;2023-08-21T00:14:45;94782.30;;;21.73;100.00
6196;BME280;3131;42.630;23.382;2023-08-21T00:17:14;94786.14;;;21.65;100.00
6196;BME280;3131;42.630;23.382;2023-08-21T00:19:44;94785.52;;;21.51;100.00
6196;BME280;3131;42.630;23.382;2023-08-21T00:24:53;94783.06;;;21.33;100.00
6196;BME280;3131;42.630;23.382;2023-08-21T00:27:22;94766.70;;;21.14;100.00
6196;BME280;3131;42.630;23.382;2023-08-21T00:29:52;94785.95;;;21.22;100.00
6196;BME280;3131;42.630;23.382;2023-08-21T00:32:21;94781.28;;;21.21;100.00
6196;BME280;3131;42.630;23.382;2023-08-21T00:34:50;94781.28;;;21.17;100.00
6196;BME280;3131;42.630;23.382;2023-08-21T00:37:19;94784.49;;;21.27;100.00
6196;BME280;3131;42.630;23.382;2023-08-21T00:39:49;94782.58;;;21.25;100.00
6196;BME280;3131;42.630;23.382;2023-08-21T00:42:18;94783.67;;;21.10;100.00
6196;BME280;3131;42.630;23.382;2023-08-21T00:44:47;94777.10;;;21.04;100.00
6196;BME280;3131;42.630;23.382;2023-08-21T00:47:16;94783.34;;;20.93;100.00
6196;BME280;3131;42.630;23.382;2023-08-21T00:49:47;94786.53;;;20.91;100.00
6196;BME280;3131;42.630;23.382;2023-08-21T00:52:17;94792.45;;;20.92;100.00
6196;BME280;3131;42.630;23.382;2023-08-21T00:54:46;94783.16;;;20.91;100.00
6196;BME280;3131;42.630;23.382;2023-08-21T00:57:16;94789.71;;;20.85;100.00
6196;BME280;3131;42.630;23.382;2023-08-21T00:59:45;94789.71;;;20.81;100.00
6196;BME280;3131;42.630;23.382;2023-08-21T01:02:15;94799.62;;;20.80;100.00
6196;BME280;3131;42.630;23.382;2023-08-21T01:04:46;94792.72;;;20.72;100.00
6196;BME280;3131;42.630;23.382;2023-08-21T01:09:58;94799.12;;;20.76;100.00
6196;BME280;3131;42.630;23.382;2023-08-21T01:12:31;94797.19;;;20.70;100.00
6196;BME280;3131;42.630;23.382;2023-08-21T01:15:01;94799.44;;;20.73;100.00
6196;BME280;3131;42.630;23.382;2023-08-21T01:17:32;94800.89;;;20.72;100.00
6196;BME280;3131;42.630;23.382;2023-08-21T01:20:05;94795.91;;;20.70;100.00
6196;BME280;3131;42.630;23.382;2023-08-21T01:22:37;94799.13;;;20.80;100.00
6196;BME280;3131;42.630;23.382;2023-08-21T01:25:08;94800.76;;;20.81;100.00
6196;BME280;3131;42.630;23.382;2023-08-21T01:30:18;94792.72;;;20.72;100.00
6196;BME280;3131;42.630;23.382;2023-08-21T01:32:53;94796.56;;;20.68;100.00
6196;BME280;3131;42.630;23.382;2023-08-21T01:35:22;94792.67;;;20.60;100.00
6196;BME280;3131;42.630;23.382;2023-08-21T01:37:52;94795.23;;;20.64;100.00
6196;BME280;3131;42.630;23.382;2023-08-21T01:40:22;94789.31;;;20.59;100.00
6196;BME280;3131;42.630;23.382;2023-08-21T01:42:53;94794.26;;;20.57;100.00
6196;BME280;3131;42.630;23.382;2023-08-21T01:45:22;94794.26;;;20.57;100.00
6196;BME280;3131;42.630;23.382;2023-08-21T01:50:32;94797.22;;;20.74;100.00
6196;BME280;3131;42.630;23.382;2023-08-21T01:53:01;94800.06;;;20.67;100.00
6196;BME280;3131;42.630;23.382;2023-08-21T01:55:31;94795.59;;;20.65;100.00
6196;BME280;3131;42.630;23.382;2023-08-21T01:58:00;94796.34;;;20.57;100.00
6196;BME280;3131;42.630;23.382;2023-08-21T02:00:29;94794.26;;;20.57;100.00
6196;BME280;3131;42.630;23.382;2023-08-21T02:02:58;94786.27;;;20.56;100.00
6196;BME280;3131;42.630;23.382;2023-08-21T02:05:28;94794.84;;;20.47;100.00
6196;BME280;3131;42.630;23.382;2023-08-21T02:10:49;94781.62;;;20.29;100.00
6196;BME280;3131;42.630;23.382;2023-08-21T02:13:19;94789.40;;;20.15;100.00
6196;BME280;3131;42.630;23.382;2023-08-21T02:15:48;94791.57;;;20.02;100.00
6196;BME280;3131;42.630;23.382;2023-08-21T02:18:17;94787.87;;;20.01;100.00
6196;BME280;3131;42.630;23.382;2023-08-21T02:20:48;94786.64;;;20.09;100.00
6196;BME280;3131;42.630;23.382;2023-08-21T02:23:17;94787.95;;;20.17;100.00
6196;BME280;3131;42.630;23.382;2023-08-21T02:25:46;94786.72;;;20.21;100.00
6196;BME280;3131;42.630;23.382;2023-08-21T02:28:16;94786.53;;;20.18;100.00
6196;BME280;3131;42.630;23.382;2023-08-21T02:30:46;94783.31;;;20.16;100.00
6196;BME280;3131;42.630;23.382;2023-08-21T02:35:55;94785.20;;;20.10;100.00
6196;BME280;3131;42.630;23.382;2023-08-21T02:38:25;94784.88;;;20.05;100.00
6196;BME280;3131;42.630;23.382;2023-08-21T02:40:54;94787.53;;;19.96;100.00
6196;BME280;3131;42.630;23.382;2023-08-21T02:43:23;94786.17;;;19.83;100.00
6196;BME280;3131;42.630;23.382;2023-08-21T02:45:52;94789.03;;;19.80;100.00
6196;BME280;3131;42.630;23.382;2023-08-21T02:48:21;94784.89;;;19.83;100.00
6196;BME280;3131;42.630;23.382;2023-08-21T02:50:51;94787.68;;;19.72;100.00
6196;BME280;3131;42.630;23.382;2023-08-21T02:56:07;94787.68;;;19.72;100.00
6196;BME280;3131;42.630;23.382;2023-08-21T02:58:36;94784.06;;;19.61;100.00
6196;BME280;3131;42.630;23.382;2023-08-21T03:01:05;94786.57;;;19.57;100.00
6196;BME280;3131;42.630;23.382;2023-08-21T03:03:34;94790.05;;;19.47;100.00
6196;BME280;3131;42.630;23.382;2023-08-21T03:06:04;94795.39;;;19.40;100.00
6196;BME280;3131;42.630;23.382;2023-08-21T03:08:33;94791.70;;;19.35;100.00
6196;BME280;3131;42.630;23.382;2023-08-21T03:11:03;94789.53;;;19.26;100.00
6196;BME280;3131;42.630;23.382;2023-08-21T03:13:32;94802.42;;;19.20;100.00
6196;BME280;3131;42.630;23.382;2023-08-21T03:16:01;94800.12;;;19.13;100.00
6196;BME280;3131;42.630;23.382;2023-08-21T03:21:12;94805.30;;;19.04;100.00
6196;BME280;3131;42.630;23.382;2023-08-21T03:23:42;94807.28;;;18.96;100.00
6196;BME280;3131;42.630;23.382;2023-08-21T03:26:11;94806.42;;;18.87;100.00
6196;BME280;3131;42.630;23.382;2023-08-21T03:28:40;94816.54;;;18.79;100.00
6196;BME280;3131;42.630;23.382;2023-08-21T03:31:09;94830.73;;;18.68;100.00
6196;BME280;3131;42.630;23.382;2023-08-21T03:33:38;94819.83;;;18.62;100.00
6196;BME280;3131;42.630;23.382;2023-08-21T03:36:08;94820.39;;;18.69;100.00
6196;BME280;3131;42.630;23.382;2023-08-21T03:38:37;94816.06;;;18.79;100.00
6196;BME280;3131;42.630;23.382;2023-08-21T03:41:06;94819.80;;;18.85;100.00
6196;BME280;3131;42.630;23.382;2023-08-21T03:43:35;94817.77;;;18.89;100.00
6196;BME280;3131;42.630;23.382;2023-08-21T03:46:04;94822.67;;;18.86;100.00
6196;BME280;3131;42.630;23.382;2023-08-21T03:48:33;94821.50;;;18.94;100.00
6196;BME280;3131;42.630;23.382;2023-08-21T03:51:03;94820.55;;;18.95;100.00
6196;BME280;3131;42.630;23.382;2023-08-21T03:53:32;94813.55;;;18.97;100.00
6196;BME280;3131;42.630;23.382;2023-08-21T03:56:01;94815.41;;;19.09;100.00
6196;BME280;3131;42.630;23.382;2023-08-21T04:01:11;94822.08;;;19.20;100.00
6196;BME280;3131;42.630;23.382;2023-08-21T04:03:41;94820.06;;;19.28;100.00
6196;BME280;3131;42.630;23.382;2023-08-21T04:06:10;94820.48;;;19.41;100.00
6196;BME280;3131;42.630;23.382;2023-08-21T04:08:39;94816.66;;;19.41;100.00
6196;BME280;3131;42.630;23.382;2023-08-21T04:11:09;94820.73;;;19.47;100.00
6196;BME280;3131;42.630;23.382;2023-08-21T04:13:38;94818.25;;;19.60;100.00
6196;BME280;3131;42.630;23.382;2023-08-21T04:16:07;94821.34;;;19.63;100.00
6196;BME280;3131;42.630;23.382;2023-08-21T04:18:36;94812.36;;;19.77;100.00
6196;BME280;3131;42.630;23.382;2023-08-21T04:21:06;94824.73;;;19.86;100.00
6196;BME280;3131;42.630;23.382;2023-08-21T04:23:35;94824.23;;;19.82;100.00
6196;BME280;3131;42.630;23.382;2023-08-21T04:26:05;94817.86;;;19.86;100.00
6196;BME280;3131;42.630;23.382;2023-08-21T04:31:16;94826.02;;;20.12;100.00
6196;BME280;3131;42.630;23.382;2023-08-21T04:33:45;94828.89;;;20.09;100.00
6196;BME280;3131;42.630;23.382;2023-08-21T04:36:16;94828.59;;;20.12;100.00
6196;BME280;3131;42.630;23.382;2023-08-21T04:38:45;94833.91;;;20.18;100.00
6196;BME280;3131;42.630;23.382;2023-08-21T04:41:14;94831.05;;;20.26;100.00
6196;BME280;3131;42.630;23.382;2023-08-21T04:43:44;94829.19;;;20.36;100.00
6196;BME280;3131;42.630;23.382;2023-08-21T04:46:13;94833.27;;;20.47;100.00
6196;BME280;3131;42.630;23.382;2023-08-21T04:48:42;94831.23;;;20.54;100.00
6196;BME280;3131;42.630;23.382;2023-08-21T04:51:11;94834.33;;;20.62;100.00
6196;BME280;3131;42.630;23.382;2023-08-21T04:53:42;94836.42;;;20.71;100.00
6196;BME280;3131;42.630;23.382;2023-08-21T04:56:11;94837.27;;;20.79;100.00
6196;BME280;3131;42.630;23.382;2023-08-21T05:01:20;94838.28;;;20.99;100.00
6196;BME280;3131;42.630;23.382;2023-08-21T05:03:49;94837.00;;;20.99;100.00
6196;BME280;3131;42.630;23.382;2023-08-21T05:06:18;94845.22;;;21.10;100.00
6196;BME280;3131;42.630;23.382;2023-08-21T05:08:48;94849.06;;;21.15;100.00
6196;BME280;3131;42.630;23.382;2023-08-21T05:11:17;94850.52;;;21.17;100.00
6196;BME280;3131;42.630;23.382;2023-08-21T05:13:47;94851.80;;;21.13;100.00
6196;BME280;3131;42.630;23.382;2023-08-21T05:16:16;94852.11;;;21.06;100.00
6196;BME280;3131;42.630;23.382;2023-08-21T05:18:45;94853.22;;;21.03;100.00
6196;BME280;3131;42.630;23.382;2023-08-21T05:21:15;94853.08;;;21.13;100.00
6196;BME280;3131;42.630;23.382;2023-08-21T05:26:24;94854.45;;;21.50;100.00
6196;BME280;3131;42.630;23.382;2023-08-21T05:28:53;94861.22;;;21.63;100.00
6196;BME280;3131;42.630;23.382;2023-08-21T05:31:22;94860.56;;;21.65;100.00
6196;BME280;3131;42.630;23.382;2023-08-21T05:33:51;94858.00;;;21.77;100.00
6196;BME280;3131;42.630;23.382;2023-08-21T05:36:21;94852.88;;;21.90;100.00
6196;BME280;3131;42.630;23.382;2023-08-21T05:38:50;94853.99;;;22.08;100.00
6196;BME280;3131;42.630;23.382;2023-08-21T05:41:20;94852.86;;;22.22;100.00
6196;BME280;3131;42.630;23.382;2023-08-21T05:46:30;94854.41;;;22.48;100.00
6196;BME280;3131;42.630;23.382;2023-08-21T05:49:01;94857.77;;;22.57;100.00
6196;BME280;3131;42.630;23.382;2023-08-21T05:51:30;94857.55;;;22.75;100.00
6196;BME280;3131;42.630;23.382;2023-08-21T05:53:59;94853.63;;;22.91;100.00
6196;BME280;3131;42.630;23.382;2023-08-21T05:56:29;94851.01;;;23.07;100.00
6196;BME280;3131;42.630;23.382;2023-08-21T06:04:19;94855.69;;;23.35;100.00
6196;BME280;3131;42.630;23.382;2023-08-21T06:09:36;94855.05;;;23.60;100.00
6196;BME280;3131;42.630;23.382;2023-08-21T06:12:06;94860.31;;;23.62;100.00
6196;BME280;3131;42.630;23.382;2023-08-21T06:14:35;94857.63;;;23.83;100.00
6196;BME280;3131;42.630;23.382;2023-08-21T06:19:45;94863.39;;;24.23;100.00
6196;BME280;3131;42.630;23.382;2023-08-21T06:22:14;94865.25;;;24.33;100.00
6196;BME280;3131;42.630;23.382;2023-08-21T06:24:44;94864.56;;;24.54;100.00
6196;BME280;3131;42.630;23.382;2023-08-21T06:27:13;94868.47;;;24.79;100.00
6196;BME280;3131;42.630;23.382;2023-08-21T06:29:42;94860.80;;;25.01;100.00
6196;BME280;3131;42.630;23.382;2023-08-21T06:32:11;94868.20;;;25.19;100.00
6196;BME280;3131;42.630;23.382;2023-08-21T06:34:40;94871.71;;;25.33;100.00
6196;BME280;3131;42.630;23.382;2023-08-21T06:37:09;94875.59;;;25.43;100.00
6196;BME280;3131;42.630;23.382;2023-08-21T06:39:40;94880.58;;;25.56;100.00
6196;BME280;3131;42.630;23.382;2023-08-21T06:44:49;94875.20;;;25.93;100.00
6196;BME280;3131;42.630;23.382;2023-08-21T06:47:18;94880.55;;;26.03;100.00
6196;BME280;3131;42.630;23.382;2023-08-21T06:49:49;94876.42;;;26.08;100.00
6196;BME280;3131;42.630;23.382;2023-08-21T06:52:18;94877.27;;;26.15;100.00
6196;BME280;3131;42.630;23.382;2023-08-21T06:54:48;94876.02;;;26.33;100.00
6196;BME280;3131;42.630;23.382;2023-08-21T06:57:17;94879.98;;;26.46;100.00
6196;BME280;3131;42.630;23.382;2023-08-21T06:59:46;94880.66;;;26.55;100.00
6196;BME280;3131;42.630;23.382;2023-08-21T07:05:02;94874.01;;;26.74;98.21
6196;BME280;3131;42.630;23.382;2023-08-21T07:07:31;94880.30;;;26.99;97.38
6196;BME280;3131;42.630;23.382;2023-08-21T07:10:01;94880.52;;;27.22;94.23
6196;BME280;3131;42.630;23.382;2023-08-21T07:12:31;94891.02;;;27.38;92.24
6196;BME280;3131;42.630;23.382;2023-08-21T07:15:00;94886.75;;;27.41;90.95
6196;BME280;3131;42.630;23.382;2023-08-21T07:17:29;94883.05;;;27.46;90.85
6196;BME280;3131;42.630;23.382;2023-08-21T07:19:58;94880.47;;;27.46;91.38
6196;BME280;3131;42.630;23.382;2023-08-21T07:22:27;94881.20;;;27.57;92.37
6196;BME280;3131;42.630;23.382;2023-08-21T07:24:57;94882.91;;;27.67;91.18
6196;BME280;3131;42.630;23.382;2023-08-21T07:27:28;94884.69;;;27.97;87.64
6196;BME280;3131;42.630;23.382;2023-08-21T07:29:57;94886.55;;;28.13;83.87
6196;BME280;3131;42.630;23.382;2023-08-21T07:32:26;94877.59;;;27.89;85.97
6196;BME280;3131;42.630;23.382;2023-08-21T07:34:55;94881.20;;;27.94;86.65
6196;BME280;3131;42.630;23.382;2023-08-21T07:37:25;94873.81;;;27.85;85.77
6196;BME280;3131;42.630;23.382;2023-08-21T07:39:54;94875.59;;;28.44;83.53
6196;BME280;3131;42.630;23.382;2023-08-21T07:42:25;94875.59;;;28.44;83.53
6196;BME280;3131;42.630;23.382;2023-08-21T07:47:35;94867.88;;;28.96;81.05
6196;BME280;3131;42.630;23.382;2023-08-21T07:50:06;94880.98;;;28.91;79.21
6196;BME280;3131;42.630;23.382;2023-08-21T07:52:36;94878.67;;;29.06;77.23
6196;BME280;3131;42.630;23.382;2023-08-21T07:55:07;94875.67;;;29.31;74.96
6196;BME280;3131;42.630;23.382;2023-08-21T07:57:36;94875.42;;;29.55;72.96
6196;BME280;3131;42.630;23.382;2023-08-21T08:00:07;94871.11;;;29.58;74.81
6196;BME280;3131;42.630;23.382;2023-08-21T08:02:37;94871.78;;;29.70;73.53
6196;BME280;3131;42.630;23.382;2023-08-21T08:05:08;94871.16;;;29.99;69.72
6196;BME280;3131;42.630;23.382;2023-08-21T08:10:17;94870.30;;;30.56;60.49
6196;BME280;3131;42.630;23.382;2023-08-21T08:12:46;94870.90;;;30.58;58.76
6196;BME280;3131;42.630;23.382;2023-08-21T08:15:15;94869.30;;;30.75;57.33
6196;BME280;3131;42.630;23.382;2023-08-21T08:17:44;94865.43;;;30.84;55.93
6196;BME280;3131;42.630;23.382;2023-08-21T08:20:14;94866.56;;;30.61;56.98
6196;BME280;3131;42.630;23.382;2023-08-21T08:22:43;94860.47;;;30.67;58.45
6196;BME280;3131;42.630;23.382;2023-08-21T08:25:12;94863.45;;;30.98;57.64
6196;BME280;3131;42.630;23.382;2023-08-21T08:27:42;94862.56;;;31.22;54.72
6196;BME280;3131;42.630;23.382;2023-08-21T08:30:12;94861.63;;;31.35;53.07
6196;BME280;3131;42.630;23.382;2023-08-21T08:32:43;94861.07;;;31.54;52.69
6196;BME280;3131;42.630;23.382;2023-08-21T08:35:13;94854.47;;;31.40;52.48
6196;BME280;3131;42.630;23.382;2023-08-21T08:37:42;94855.73;;;31.70;52.40
6196;BME280;3131;42.630;23.382;2023-08-21T08:40:13;94857.89;;;31.73;51.08
6196;BME280;3131;42.630;23.382;2023-08-21T08:42:42;94858.23;;;31.77;49.78
6196;BME280;3131;42.630;23.382;2023-08-21T08:47:53;94849.75;;;32.37;47.04
6196;BME280;3131;42.630;23.382;2023-08-21T08:50:23;94849.92;;;31.98;48.01
6196;BME280;3131;42.630;23.382;2023-08-21T08:55:32;94840.80;;;32.22;46.85
6196;BME280;3131;42.630;23.382;2023-08-21T08:58:02;94843.00;;;32.16;47.01
6196;BME280;3131;42.630;23.382;2023-08-21T09:00:32;94841.94;;;33.70;42.97
6196;BME280;3131;42.630;23.382;2023-08-21T09:03:02;94850.45;;;35.82;37.99
6196;BME280;3131;42.630;23.382;2023-08-21T09:05:31;94847.70;;;37.47;34.42
6196;BME280;3131;42.630;23.382;2023-08-21T09:08:12;94835.63;;;38.22;32.03
6196;BME280;3131;42.630;23.382;2023-08-21T09:10:42;94844.19;;;38.87;30.70
6196;BME280;3131;42.630;23.382;2023-08-21T09:15:55;94845.03;;;38.67;30.94
6196;BME280;3131;42.630;23.382;2023-08-21T09:18:24;94851.20;;;39.09;29.85
6196;BME280;3131;42.630;23.382;2023-08-21T09:20:53;94844.60;;;39.98;28.99
6196;BME280;3131;42.630;23.382;2023-08-21T09:23:24;94846.67;;;40.35;27.98
6196;BME280;3131;42.630;23.382;2023-08-21T09:25:53;94840.63;;;40.01;28.55
6196;BME280;3131;42.630;23.382;2023-08-21T09:28:23;94846.30;;;41.17;26.87
6196;BME280;3131;42.630;23.382;2023-08-21T09:30:54;94835.97;;;42.24;25.79
6196;BME280;3131;42.630;23.382;2023-08-21T09:33:24;94835.53;;;42.19;25.22
6196;BME280;3131;42.630;23.382;2023-08-21T09:35:54;94837.01;;;42.97;24.22
6196;BME280;3131;42.630;23.382;2023-08-21T09:41:03;94825.08;;;42.55;24.62
6196;BME280;3131;42.630;23.382;2023-08-21T09:43:37;94834.73;;;42.62;24.21
6196;BME280;3131;42.630;23.382;2023-08-21T09:46:04;94832.51;;;42.83;23.71
6196;BME280;3131;42.630;23.382;2023-08-21T09:48:34;94826.08;;;43.62;23.39
6196;BME280;3131;42.630;23.382;2023-08-21T09:51:04;94827.13;;;43.00;24.13
6196;BME280;3131;42.630;23.382;2023-08-21T09:53:33;94830.55;;;43.50;23.10
6196;BME280;3131;42.630;23.382;2023-08-21T09:56:04;94826.61;;;43.25;22.95
6196;BME280;3131;42.630;23.382;2023-08-21T09:58:33;94818.34;;;42.33;23.88
6196;BME280;3131;42.630;23.382;2023-08-21T10:01:05;94814.90;;;43.15;23.27
6196;BME280;3131;42.630;23.382;2023-08-21T10:06:20;94806.41;;;43.52;23.04
6196;BME280;3131;42.630;23.382;2023-08-21T10:08:53;94804.98;;;42.93;23.66
6196;BME280;3131;42.630;23.382;2023-08-21T10:11:22;94801.22;;;42.55;24.40
6196;BME280;3131;42.630;23.382;2023-08-21T10:13:52;94812.45;;;43.55;22.71
6196;BME280;3131;42.630;23.382;2023-08-21T10:16:21;94808.67;;;44.12;22.14
6196;BME280;3131;42.630;23.382;2023-08-21T10:18:51;94802.87;;;44.10;22.02
6196;BME280;3131;42.630;23.382;2023-08-21T10:21:21;94807.12;;;43.77;22.25
6196;BME280;3131;42.630;23.382;2023-08-21T10:26:40;94792.05;;;43.03;23.27
6196;BME280;3131;42.630;23.382;2023-08-21T10:29:09;94792.41;;;42.99;23.16
6196;BME280;3131;42.630;23.382;2023-08-21T10:31:39;94791.45;;;44.10;21.91
6196;BME280;3131;42.630;23.382;2023-08-21T10:34:11;94793.58;;;43.88;22.16
6196;BME280;3131;42.630;23.382;2023-08-21T10:39:53;94782.48;;;43.04;22.59
6196;BME280;3131;42.630;23.382;2023-08-21T10:44:54;94775.77;;;43.32;22.77
6196;BME280;3131;42.630;23.382;2023-08-21T10:47:31;94775.59;;;43.85;22.07
6196;BME280;3131;42.630;23.382;2023-08-21T10:50:04;94774.31;;;44.24;21.65
6196;BME280;3131;42.630;23.382;2023-08-21T10:52:35;94773.30;;;44.23;22.05
6196;BME280;3131;42.630;23.382;2023-08-21T10:55:07;94773.27;;;44.34;21.27
6196;BME280;3131;42.630;23.382;2023-08-21T10:57:37;94766.61;;;44.14;21.80
6196;BME280;3131;42.630;23.382;2023-08-21T11:00:10;94753.20;;;44.19;21.55
6196;BME280;3131;42.630;23.382;2023-08-21T11:02:42;94760.35;;;44.10;21.57
6196;BME280;3131;42.630;23.382;2023-08-21T11:05:12;94755.80;;;44.42;21.19
6196;BME280;3131;42.630;23.382;2023-08-21T11:10:24;94749.74;;;45.57;20.49
6196;BME280;3131;42.630;23.382;2023-08-21T11:12:54;94752.18;;;46.12;20.08
6196;BME280;3131;42.630;23.382;2023-08-21T11:15:27;94750.73;;;45.67;20.37
6196;BME280;3131;42.630;23.382;2023-08-21T11:17:56;94748.16;;;45.47;20.03
6196;BME280;3131;42.630;23.382;2023-08-21T11:20:30;94746.46;;;45.08;20.83
6196;BME280;3131;42.630;23.382;2023-08-21T11:25:41;94737.77;;;45.48;20.67
6196;BME280;3131;42.630;23.382;2023-08-21T11:28:10;94737.69;;;44.99;20.35
6196;BME280;3131;42.630;23.382;2023-08-21T11:30:39;94741.83;;;41.68;23.00
6196;BME280;3131;42.630;23.382;2023-08-21T11:33:10;94740.48;;;40.07;24.53
6196;BME280;3131;42.630;23.382;2023-08-21T11:35:40;94737.66;;;38.93;25.59
6196;BME280;3131;42.630;23.382;2023-08-21T11:38:16;94721.67;;;40.62;24.36
6196;BME280;3131;42.630;23.382;2023-08-21T11:40:56;94731.76;;;41.84;22.82
6196;BME280;3131;42.630;23.382;2023-08-21T11:43:36;94730.17;;;42.94;21.65
6196;BME280;3131;42.630;23.382;2023-08-21T11:46:06;94720.31;;;43.87;20.79
6196;BME280;3131;42.630;23.382;2023-08-21T11:51:17;94720.14;;;46.05;18.92
6196;BME280;3131;42.630;23.382;2023-08-21T11:53:48;94723.66;;;45.80;18.72
6196;BME280;3131;42.630;23.382;2023-08-21T11:56:18;94717.20;;;45.75;18.91
6196;BME280;3131;42.630;23.382;2023-08-21T11:58:48;94717.17;;;46.07;18.72
6196;BME280;3131;42.630;23.382;2023-08-21T12:01:18;94713.67;;;45.19;19.15
6196;BME280;3131;42.630;23.382;2023-08-21T12:03:48;94712.08;;;43.66;20.43
6196;BME280;3131;42.630;23.382;2023-08-21T12:06:19;94715.55;;;44.26;19.72
6196;BME280;3131;42.630;23.382;2023-08-21T12:11:35;94705.91;;;46.25;18.37
6196;BME280;3131;42.630;23.382;2023-08-21T12:14:05;94712.56;;;45.28;18.83
6196;BME280;3131;42.630;23.382;2023-08-21T12:16:35;94709.76;;;45.25;19.03
6196;BME280;3131;42.630;23.382;2023-08-21T12:19:06;94704.17;;;45.58;18.72
6196;BME280;3131;42.630;23.382;2023-08-21T12:21:37;94697.41;;;46.32;18.17
6196;BME280;3131;42.630;23.382;2023-08-21T12:24:06;94696.86;;;45.21;18.92
6196;BME280;3131;42.630;23.382;2023-08-21T12:26:36;94702.17;;;43.89;19.89
6196;BME280;3131;42.630;23.382;2023-08-21T12:29:05;94700.21;;;44.89;19.38
6196;BME280;3131;42.630;23.382;2023-08-21T12:31:34;94700.06;;;45.11;18.95
6196;BME280;3131;42.630;23.382;2023-08-21T12:36:45;94694.23;;;45.01;19.07
6196;BME280;3131;42.630;23.382;2023-08-21T12:39:15;94702.95;;;43.69;20.21
6196;BME280;3131;42.630;23.382;2023-08-21T12:41:44;94699.16;;;41.70;21.65
6196;BME280;3131;42.630;23.382;2023-08-21T12:46:59;94686.86;;;39.53;24.11
6196;BME280;3131;42.630;23.382;2023-08-21T12:49:28;94689.31;;;41.73;22.17
6196;BME280;3131;42.630;23.382;2023-08-21T12:51:57;94688.99;;;43.55;20.80
6196;BME280;3131;42.630;23.382;2023-08-21T12:54:26;94689.33;;;44.13;19.70
6196;BME280;3131;42.630;23.382;2023-08-21T12:56:55;94684.21;;;45.50;18.71
6196;BME280;3131;42.630;23.382;2023-08-21T12:59:25;94684.81;;;45.88;18.29
6196;BME280;3131;42.630;23.382;2023-08-21T13:01:54;94680.48;;;45.25;18.56
6196;BME280;3131;42.630;23.382;2023-08-21T13:04:23;94677.32;;;45.72;18.37
6196;BME280;3131;42.630;23.382;2023-08-21T13:09:40;94668.55;;;46.96;17.48
6196;BME280;3131;42.630;23.382;2023-08-21T13:12:09;94664.55;;;46.69;16.89
6196;BME280;3131;42.630;23.382;2023-08-21T13:14:38;94668.23;;;47.25;16.81
6196;BME280;3131;42.630;23.382;2023-08-21T13:17:08;94662.61;;;47.06;17.27
6196;BME280;3131;42.630;23.382;2023-08-21T13:19:38;94655.68;;;45.74;18.18
6196;BME280;3131;42.630;23.382;2023-08-21T13:22:08;94655.18;;;45.33;18.38
6196;BME280;3131;42.630;23.382;2023-08-21T13:24:37;94655.23;;;46.10;17.92
6196;BME280;3131;42.630;23.382;2023-08-21T13:27:06;94658.53;;;45.92;18.12
6196;BME280;3131;42.630;23.382;2023-08-21T13:32:16;94647.52;;;46.68;17.46
6196;BME280;3131;42.630;23.382;2023-08-21T13:34:45;94653.45;;;46.59;17.62
6196;BME280;3131;42.630;23.382;2023-08-21T13:37:14;94653.30;;;46.34;17.73
6196;BME280;3131;42.630;23.382;2023-08-21T13:39:43;94654.31;;;45.82;17.54
6196;BME280;3131;42.630;23.382;2023-08-21T13:42:13;94649.80;;;45.59;18.56
6196;BME280;3131;42.630;23.382;2023-08-21T13:44:42;94641.98;;;45.93;18.56
6196;BME280;3131;42.630;23.382;2023-08-21T13:47:12;94647.52;;;46.68;17.72
6196;BME280;3131;42.630;23.382;2023-08-21T13:49:42;94650.47;;;46.60;17.88
6196;BME280;3131;42.630;23.382;2023-08-21T13:54:52;94636.51;;;45.74;18.07
6196;BME280;3131;42.630;23.382;2023-08-21T13:57:21;94643.50;;;45.32;18.32
6196;BME280;3131;42.630;23.382;2023-08-21T13:59:50;94639.86;;;45.77;17.75
6196;BME280;3131;42.630;23.382;2023-08-21T14:02:19;94640.66;;;46.07;17.55
6196;BME280;3131;42.630;23.382;2023-08-21T14:04:51;94639.11;;;46.06;17.80
6196;BME280;3131;42.630;23.382;2023-08-21T14:07:20;94640.02;;;46.11;17.43
6196;BME280;3131;42.630;23.382;2023-08-21T14:09:50;94636.70;;;45.84;17.38
6196;BME280;3131;42.630;23.382;2023-08-21T14:12:20;94630.11;;;45.90;17.82
6196;BME280;3131;42.630;23.382;2023-08-21T14:14:49;94637.39;;;45.63;18.28
6196;BME280;3131;42.630;23.382;2023-08-21T14:20:07;94641.58;;;45.09;18.96
6196;BME280;3131;42.630;23.382;2023-08-21T14:22:36;94635.70;;;44.66;19.32
6196;BME280;3131;42.630;23.382;2023-08-21T14:25:07;94644.76;;;43.70;20.20
6196;BME280;3131;42.630;23.382;2023-08-21T14:27:36;94640.48;;;43.72;20.12
6196;BME280;3131;42.630;23.382;2023-08-21T14:30:08;94649.12;;;43.01;20.80
6196;BME280;3131;42.630;23.382;2023-08-21T14:32:37;94648.45;;;42.96;20.50
6196;BME280;3131;42.630;23.382;2023-08-21T14:35:08;94643.41;;;41.50;21.71
6196;BME280;3131;42.630;23.382;2023-08-21T14:40:17;94638.14;;;38.20;25.27
6196;BME280;3131;42.630;23.382;2023-08-21T14:42:46;94644.38;;;37.33;26.23
6196;BME280;3131;42.630;23.382;2023-08-21T14:45:16;94647.73;;;36.85;27.76
6196;BME280;3131;42.630;23.382;2023-08-21T14:47:45;94653.56;;;36.07;30.47
6196;BME280;3131;42.630;23.382;2023-08-21T14:50:15;94655.43;;;35.31;32.13
6196;BME280;3131;42.630;23.382;2023-08-21T14:52:45;94651.23;;;34.49;34.08
6196;BME280;3131;42.630;23.382;2023-08-21T14:55:16;94648.42;;;34.07;35.56
6196;BME280;3131;42.630;23.382;2023-08-21T14:57:45;94646.22;;;34.01;36.25
6196;BME280;3131;42.630;23.382;2023-08-21T15:00:18;94635.63;;;33.71;37.62
6196;BME280;3131;42.630;23.382;2023-08-21T15:02:47;94639.59;;;33.55;37.97
6196;BME280;3131;42.630;23.382;2023-08-21T15:05:16;94638.82;;;33.95;37.72
6196;BME280;3131;42.630;23.382;2023-08-21T15:10:36;94640.78;;;34.74;36.43